sensor_id;sensor_type;location;lat;lon;timestamp;temperature;humidity
17442;DHT22;8838;50.144;8.176;2023-03-04T00:02:21;-0.80;99.90
17442;DHT22;8838;50.144;8.176;2023-03-04T00:04:48;-0.90;99.90
17442;DHT22;8838;50.144;8.176;2023-03-04T00:07:15;-0.80;99.90
17442;DHT22;8838;50.144;8.176;2023-03-04T00:09:44;-0.80;99.90
17442;DHT22;8838;50.144;8.176;2023-03-04T00:12:11;-0.80;99.90
17442;DHT22;8838;50.144;8.176;2023-03-04T00:14:38;-0.80;99.90
17442;DHT22;8838;50.144;8.176;2023-03-04T00:17:04;-0.80;99.90
17442;DHT22;8838;50.144;8.176;2023-03-04T00:19:35;-0.90;99.90
17442;DHT22;8838;50.144;8.176;2023-03-04T00:22:02;-0.90;99.90
17442;DHT22;8838;50.144;8.176;2023-03-04T00:24:29;-0.80;99.90
17442;DHT22;8838;50.144;8.176;2023-03-04T00:26:56;-0.80;99.90
17442;DHT22;8838;50.144;8.176;2023-03-04T00:29:22;-0.90;99.90
17442;DHT22;8838;50.144;8.176;2023-03-04T00:31:49;-0.90;99.90
17442;DHT22;8838;50.144;8.176;2023-03-04T00:34:16;-0.90;99.90
17442;DHT22;8838;50.144;8.176;2023-03-04T00:36:44;-0.90;99.90
17442;DHT22;8838;50.144;8.176;2023-03-04T00:39:11;-0.90;99.90
17442;DHT22;8838;50.144;8.176;2023-03-04T00:41:38;-0.90;99.90
17442;DHT22;8838;50.144;8.176;2023-03-04T00:44:05;-0.90;99.90
17442;DHT22;8838;50.144;8.176;2023-03-04T00:46:32;-0.80;99.90
17442;DHT22;8838;50.144;8.176;2023-03-04T00:48:59;-0.90;99.90
17442;DHT22;8838;50.144;8.176;2023-03-04T00:51:26;-0.90;99.90
17442;DHT22;8838;50.144;8.176;2023-03-04T00:53:54;-0.90;99.90
17442;DHT22;8838;50.144;8.176;2023-03-04T00:56:21;-0.90;99.90
17442;DHT22;8838;50.144;8.176;2023-03-04T00:58:50;-0.90;99.90
17442;DHT22;8838;50.144;8.176;2023-03-04T01:01:17;-0.90;99.90
17442;DHT22;8838;50.144;8.176;2023-03-04T01:03:44;-0.90;99.90
17442;DHT22;8838;50.144;8.176;2023-03-04T01:06:11;-0.80;99.90
17442;DHT22;8838;50.144;8.176;2023-03-04T01:08:38;-0.70;99.90
17442;DHT22;8838;50.144;8.176;2023-03-04T01:11:06;-0.70;99.90
17442;DHT22;8838;50.144;8.176;2023-03-04T01:13:33;-0.70;99.90
17442;DHT22;8838;50.144;8.176;2023-03-04T01:16:04;-0.60;99.90
17442;DHT22;8838;50.144;8.176;2023-03-04T01:18:32;-0.60;99.90
17442;DHT22;8838;50.144;8.176;2023-03-04T01:20:58;-0.50;99.90
17442;DHT22;8838;50.144;8.176;2023-03-04T01:23:25;-0.40;99.90
17442;DHT22;8838;50.144;8.176;2023-03-04T01:25:52;-0.30;99.90
17442;DHT22;8838;50.144;8.176;2023-03-04T01:28:20;-0.20;99.90
17442;DHT22;8838;50.144;8.176;2023-03-04T01:30:47;-0.10;99.90
17442;DHT22;8838;50.144;8.176;2023-03-04T01:33:14;-0.10;99.90
17442;DHT22;8838;50.144;8.176;2023-03-04T01:35:41;0.00;99.90
17442;DHT22;8838;50.144;8.176;2023-03-04T01:38:08;0.00;99.90
17442;DHT22;8838;50.144;8.176;2023-03-04T01:40:36;0.10;99.90
17442;DHT22;8838;50.144;8.176;2023-03-04T01:43:03;0.00;99.90
17442;DHT22;8838;50.144;8.176;2023-03-04T01:45:32;0.10;99.90
17442;DHT22;8838;50.144;8.176;2023-03-04T01:47:59;0.10;99.90
17442;DHT22;8838;50.144;8.176;2023-03-04T01:50:28;0.20;99.90
17442;DHT22;8838;50.144;8.176;2023-03-04T01:52:56;0.20;99.90
17442;DHT22;8838;50.144;8.176;2023-03-04T01:55:29;0.30;99.90
17442;DHT22;8838;50.144;8.176;2023-03-04T01:57:56;0.30;99.90
17442;DHT22;8838;50.144;8.176;2023-03-04T02:00:27;0.30;99.90
17442;DHT22;8838;50.144;8.176;2023-03-04T02:02:59;0.30;99.90
17442;DHT22;8838;50.144;8.176;2023-03-04T02:05:27;0.30;99.90
17442;DHT22;8838;50.144;8.176;2023-03-04T02:07:55;0.30;99.90
17442;DHT22;8838;50.144;8.176;2023-03-04T02:10:22;0.20;99.90
17442;DHT22;8838;50.144;8.176;2023-03-04T02:12:49;0.30;99.90
17442;DHT22;8838;50.144;8.176;2023-03-04T02:15:16;0.30;99.90
17442;DHT22;8838;50.144;8.176;2023-03-04T02:17:43;0.40;99.90
17442;DHT22;8838;50.144;8.176;2023-03-04T02:20:19;0.40;99.90
17442;DHT22;8838;50.144;8.176;2023-03-04T02:22:55;0.40;99.90
17442;DHT22;8838;50.144;8.176;2023-03-04T02:25:30;0.40;99.90
17442;DHT22;8838;50.144;8.176;2023-03-04T02:28:00;0.50;99.90
17442;DHT22;8838;50.144;8.176;2023-03-04T02:30:27;0.50;99.90
17442;DHT22;8838;50.144;8.176;2023-03-04T02:32:54;0.50;99.90
17442;DHT22;8838;50.144;8.176;2023-03-04T02:35:20;0.50;99.90
17442;DHT22;8838;50.144;8.176;2023-03-04T02:37:47;0.60;99.90
17442;DHT22;8838;50.144;8.176;2023-03-04T02:40:17;0.60;99.90
17442;DHT22;8838;50.144;8.176;2023-03-04T02:42:47;0.60;99.90
17442;DHT22;8838;50.144;8.176;2023-03-04T02:45:39;0.60;99.90
17442;DHT22;8838;50.144;8.176;2023-03-04T02:48:06;0.70;99.90
17442;DHT22;8838;50.144;8.176;2023-03-04T02:50:35;0.60;99.90
17442;DHT22;8838;50.144;8.176;2023-03-04T02:53:03;0.50;99.90
17442;DHT22;8838;50.144;8.176;2023-03-04T02:55:32;0.50;99.90
17442;DHT22;8838;50.144;8.176;2023-03-04T02:57:59;0.50;99.90
17442;DHT22;8838;50.144;8.176;2023-03-04T03:00:26;0.50;99.90
17442;DHT22;8838;50.144;8.176;2023-03-04T03:02:55;0.50;99.90
17442;DHT22;8838;50.144;8.176;2023-03-04T03:05:23;0.50;99.90
17442;DHT22;8838;50.144;8.176;2023-03-04T03:07:51;0.60;99.90
17442;DHT22;8838;50.144;8.176;2023-03-04T03:10:18;0.70;99.90
17442;DHT22;8838;50.144;8.176;2023-03-04T03:12:45;0.70;99.90
17442;DHT22;8838;50.144;8.176;2023-03-04T03:15:13;0.70;99.90
17442;DHT22;8838;50.144;8.176;2023-03-04T03:17:40;0.70;99.90
17442;DHT22;8838;50.144;8.176;2023-03-04T03:20:11;0.70;99.90
17442;DHT22;8838;50.144;8.176;2023-03-04T03:22:39;0.70;99.90
17442;DHT22;8838;50.144;8.176;2023-03-04T03:25:07;0.60;99.90
17442;DHT22;8838;50.144;8.176;2023-03-04T03:27:34;0.60;99.90
17442;DHT22;8838;50.144;8.176;2023-03-04T03:30:01;0.60;99.90
17442;DHT22;8838;50.144;8.176;2023-03-04T03:32:28;0.60;99.90
17442;DHT22;8838;50.144;8.176;2023-03-04T03:34:55;0.70;99.90
17442;DHT22;8838;50.144;8.176;2023-03-04T03:37:24;0.70;99.90
17442;DHT22;8838;50.144;8.176;2023-03-04T03:39:50;0.70;99.90
17442;DHT22;8838;50.144;8.176;2023-03-04T03:42:17;0.70;99.90
17442;DHT22;8838;50.144;8.176;2023-03-04T03:44:44;0.80;99.90
17442;DHT22;8838;50.144;8.176;2023-03-04T03:47:11;0.70;99.90
17442;DHT22;8838;50.144;8.176;2023-03-04T03:49:38;0.70;99.90
17442;DHT22;8838;50.144;8.176;2023-03-04T03:52:05;0.70;99.90
17442;DHT22;8838;50.144;8.176;2023-03-04T03:54:34;0.70;99.90
17442;DHT22;8838;50.144;8.176;2023-03-04T03:57:01;0.80;99.90
17442;DHT22;8838;50.144;8.176;2023-03-04T03:59:28;0.80;99.90
17442;DHT22;8838;50.144;8.176;2023-03-04T04:01:54;0.80;99.90
17442;DHT22;8838;50.144;8.176;2023-03-04T04:04:21;0.80;99.90
17442;DHT22;8838;50.144;8.176;2023-03-04T04:06:48;0.80;99.90
17442;DHT22;8838;50.144;8.176;2023-03-04T04:09:15;0.80;99.90
17442;DHT22;8838;50.144;8.176;2023-03-04T04:11:43;0.80;99.90
17442;DHT22;8838;50.144;8.176;2023-03-04T04:14:10;0.80;99.90
17442;DHT22;8838;50.144;8.176;2023-03-04T04:16:40;0.80;99.90
17442;DHT22;8838;50.144;8.176;2023-03-04T04:19:08;0.80;99.90
17442;DHT22;8838;50.144;8.176;2023-03-04T04:21:35;0.80;99.90
17442;DHT22;8838;50.144;8.176;2023-03-04T04:24:03;0.70;99.90
17442;DHT22;8838;50.144;8.176;2023-03-04T04:26:29;0.80;99.90
17442;DHT22;8838;50.144;8.176;2023-03-04T04:28:57;0.80;99.90
17442;DHT22;8838;50.144;8.176;2023-03-04T04:31:24;0.80;99.90
17442;DHT22;8838;50.144;8.176;2023-03-04T04:33:51;0.80;99.90
17442;DHT22;8838;50.144;8.176;2023-03-04T04:36:18;0.80;99.90
17442;DHT22;8838;50.144;8.176;2023-03-04T04:38:45;0.90;99.90
17442;DHT22;8838;50.144;8.176;2023-03-04T04:41:18;0.90;99.90
17442;DHT22;8838;50.144;8.176;2023-03-04T04:43:46;0.90;99.90
17442;DHT22;8838;50.144;8.176;2023-03-04T04:46:15;0.80;99.90
17442;DHT22;8838;50.144;8.176;2023-03-04T04:48:42;0.80;99.90
17442;DHT22;8838;50.144;8.176;2023-03-04T04:51:09;0.80;99.90
17442;DHT22;8838;50.144;8.176;2023-03-04T04:53:36;0.90;99.90
17442;DHT22;8838;50.144;8.176;2023-03-04T04:56:10;0.90;99.90
17442;DHT22;8838;50.144;8.176;2023-03-04T04:58:38;0.90;99.90
17442;DHT22;8838;50.144;8.176;2023-03-04T05:01:05;0.90;99.90
17442;DHT22;8838;50.144;8.176;2023-03-04T05:03:34;0.90;99.90
17442;DHT22;8838;50.144;8.176;2023-03-04T05:06:03;1.00;99.90
17442;DHT22;8838;50.144;8.176;2023-03-04T05:08:30;0.90;99.90
17442;DHT22;8838;50.144;8.176;2023-03-04T05:10:57;1.00;99.90
17442;DHT22;8838;50.144;8.176;2023-03-04T05:13:24;1.00;99.90
17442;DHT22;8838;50.144;8.176;2023-03-04T05:15:51;1.00;99.90
17442;DHT22;8838;50.144;8.176;2023-03-04T05:18:18;1.00;99.90
17442;DHT22;8838;50.144;8.176;2023-03-04T05:20:50;1.00;99.90
17442;DHT22;8838;50.144;8.176;2023-03-04T05:23:17;1.00;99.90
17442;DHT22;8838;50.144;8.176;2023-03-04T05:25:45;1.00;99.90
17442;DHT22;8838;50.144;8.176;2023-03-04T05:28:13;0.90;99.90
17442;DHT22;8838;50.144;8.176;2023-03-04T05:30:40;1.00;99.90
17442;DHT22;8838;50.144;8.176;2023-03-04T05:33:08;1.00;99.90
17442;DHT22;8838;50.144;8.176;2023-03-04T05:35:39;1.00;99.90
17442;DHT22;8838;50.144;8.176;2023-03-04T05:38:09;1.00;99.90
17442;DHT22;8838;50.144;8.176;2023-03-04T05:40:36;1.10;99.90
17442;DHT22;8838;50.144;8.176;2023-03-04T05:43:03;1.00;99.90
17442;DHT22;8838;50.144;8.176;2023-03-04T05:45:30;0.90;99.90
17442;DHT22;8838;50.144;8.176;2023-03-04T05:47:58;0.90;99.90
17442;DHT22;8838;50.144;8.176;2023-03-04T05:50:25;0.90;99.90
17442;DHT22;8838;50.144;8.176;2023-03-04T05:52:52;1.00;99.90
17442;DHT22;8838;50.144;8.176;2023-03-04T05:55:20;0.90;99.90
17442;DHT22;8838;50.144;8.176;2023-03-04T05:57:47;1.00;99.90
17442;DHT22;8838;50.144;8.176;2023-03-04T06:00:15;1.00;99.90
17442;DHT22;8838;50.144;8.176;2023-03-04T06:02:43;1.00;99.90
17442;DHT22;8838;50.144;8.176;2023-03-04T06:05:11;1.00;99.90
17442;DHT22;8838;50.144;8.176;2023-03-04T06:07:40;1.00;99.90
17442;DHT22;8838;50.144;8.176;2023-03-04T06:10:09;0.90;99.90
17442;DHT22;8838;50.144;8.176;2023-03-04T06:12:38;0.90;99.90
17442;DHT22;8838;50.144;8.176;2023-03-04T06:15:05;1.00;99.90
17442;DHT22;8838;50.144;8.176;2023-03-04T06:17:34;1.00;99.90
17442;DHT22;8838;50.144;8.176;2023-03-04T06:20:02;1.00;99.90
17442;DHT22;8838;50.144;8.176;2023-03-04T06:22:29;1.00;99.90
17442;DHT22;8838;50.144;8.176;2023-03-04T06:24:56;1.00;99.90
17442;DHT22;8838;50.144;8.176;2023-03-04T06:27:23;1.00;99.90
17442;DHT22;8838;50.144;8.176;2023-03-04T06:29:51;1.10;99.90
17442;DHT22;8838;50.144;8.176;2023-03-04T06:32:18;1.10;99.90
17442;DHT22;8838;50.144;8.176;2023-03-04T06:34:45;1.10;99.90
17442;DHT22;8838;50.144;8.176;2023-03-04T06:37:12;1.10;99.90
17442;DHT22;8838;50.144;8.176;2023-03-04T06:39:39;1.10;99.90
17442;DHT22;8838;50.144;8.176;2023-03-04T06:42:05;1.20;99.90
17442;DHT22;8838;50.144;8.176;2023-03-04T06:44:32;1.20;99.90
17442;DHT22;8838;50.144;8.176;2023-03-04T06:47:00;1.30;99.90
17442;DHT22;8838;50.144;8.176;2023-03-04T06:49:30;1.30;99.90
17442;DHT22;8838;50.144;8.176;2023-03-04T06:51:57;1.30;99.90
17442;DHT22;8838;50.144;8.176;2023-03-04T06:54:24;1.30;99.90
17442;DHT22;8838;50.144;8.176;2023-03-04T06:56:50;1.30;99.90
17442;DHT22;8838;50.144;8.176;2023-03-04T06:59:18;1.30;99.90
17442;DHT22;8838;50.144;8.176;2023-03-04T07:01:44;1.40;99.90
17442;DHT22;8838;50.144;8.176;2023-03-04T07:04:13;1.40;99.90
17442;DHT22;8838;50.144;8.176;2023-03-04T07:06:40;1.40;99.90
17442;DHT22;8838;50.144;8.176;2023-03-04T07:09:09;1.40;99.90
17442;DHT22;8838;50.144;8.176;2023-03-04T07:11:36;1.40;99.90
17442;DHT22;8838;50.144;8.176;2023-03-04T07:14:05;1.50;99.90
17442;DHT22;8838;50.144;8.176;2023-03-04T07:16:32;1.40;99.90
17442;DHT22;8838;50.144;8.176;2023-03-04T07:18:59;1.40;99.90
17442;DHT22;8838;50.144;8.176;2023-03-04T07:21:28;1.50;99.90
17442;DHT22;8838;50.144;8.176;2023-03-04T07:23:55;1.50;99.90
17442;DHT22;8838;50.144;8.176;2023-03-04T07:26:22;1.50;99.90
17442;DHT22;8838;50.144;8.176;2023-03-04T07:28:50;1.50;99.90
17442;DHT22;8838;50.144;8.176;2023-03-04T07:31:21;1.60;99.90
17442;DHT22;8838;50.144;8.176;2023-03-04T07:33:48;1.70;99.90
17442;DHT22;8838;50.144;8.176;2023-03-04T07:36:16;1.80;99.90
17442;DHT22;8838;50.144;8.176;2023-03-04T07:38:46;1.80;99.90
17442;DHT22;8838;50.144;8.176;2023-03-04T07:41:14;1.80;99.90
17442;DHT22;8838;50.144;8.176;2023-03-04T07:43:41;1.90;99.90
17442;DHT22;8838;50.144;8.176;2023-03-04T07:46:09;1.80;99.90
17442;DHT22;8838;50.144;8.176;2023-03-04T07:48:36;1.80;99.90
17442;DHT22;8838;50.144;8.176;2023-03-04T07:51:05;1.90;99.90
17442;DHT22;8838;50.144;8.176;2023-03-04T07:53:32;1.90;99.90
17442;DHT22;8838;50.144;8.176;2023-03-04T07:56:01;2.00;99.90
17442;DHT22;8838;50.144;8.176;2023-03-04T07:58:28;2.00;99.90
17442;DHT22;8838;50.144;8.176;2023-03-04T08:00:55;2.00;99.90
17442;DHT22;8838;50.144;8.176;2023-03-04T08:03:23;2.00;99.90
17442;DHT22;8838;50.144;8.176;2023-03-04T08:05:50;1.90;99.90
17442;DHT22;8838;50.144;8.176;2023-03-04T08:08:17;1.90;99.90
17442;DHT22;8838;50.144;8.176;2023-03-04T08:10:46;1.90;99.90
17442;DHT22;8838;50.144;8.176;2023-03-04T08:13:14;2.00;99.90
17442;DHT22;8838;50.144;8.176;2023-03-04T08:15:44;2.00;99.90
17442;DHT22;8838;50.144;8.176;2023-03-04T08:18:11;2.00;99.90
17442;DHT22;8838;50.144;8.176;2023-03-04T08:20:40;2.10;99.90
17442;DHT22;8838;50.144;8.176;2023-03-04T08:23:08;2.10;99.90
17442;DHT22;8838;50.144;8.176;2023-03-04T08:25:38;2.10;99.90
17442;DHT22;8838;50.144;8.176;2023-03-04T08:28:08;2.20;99.90
17442;DHT22;8838;50.144;8.176;2023-03-04T08:30:39;2.20;99.90
17442;DHT22;8838;50.144;8.176;2023-03-04T08:33:07;2.20;99.90
17442;DHT22;8838;50.144;8.176;2023-03-04T08:35:36;2.30;99.90
17442;DHT22;8838;50.144;8.176;2023-03-04T08:38:03;2.30;99.90
17442;DHT22;8838;50.144;8.176;2023-03-04T08:40:31;2.20;99.90
17442;DHT22;8838;50.144;8.176;2023-03-04T08:42:58;2.30;99.90
17442;DHT22;8838;50.144;8.176;2023-03-04T08:45:25;2.30;99.90
17442;DHT22;8838;50.144;8.176;2023-03-04T08:47:53;2.30;99.90
17442;DHT22;8838;50.144;8.176;2023-03-04T08:50:20;2.40;99.90
17442;DHT22;8838;50.144;8.176;2023-03-04T08:52:47;2.40;99.90
17442;DHT22;8838;50.144;8.176;2023-03-04T08:55:14;2.30;99.90
17442;DHT22;8838;50.144;8.176;2023-03-04T08:57:41;2.30;99.90
17442;DHT22;8838;50.144;8.176;2023-03-04T09:00:09;2.40;99.90
17442;DHT22;8838;50.144;8.176;2023-03-04T09:02:37;2.40;99.90
17442;DHT22;8838;50.144;8.176;2023-03-04T09:05:06;2.50;99.90
17442;DHT22;8838;50.144;8.176;2023-03-04T09:07:33;2.50;99.90
17442;DHT22;8838;50.144;8.176;2023-03-04T09:10:00;2.50;99.90
17442;DHT22;8838;50.144;8.176;2023-03-04T09:12:27;2.50;99.90
17442;DHT22;8838;50.144;8.176;2023-03-04T09:14:54;2.40;99.90
17442;DHT22;8838;50.144;8.176;2023-03-04T09:17:22;2.50;99.90
17442;DHT22;8838;50.144;8.176;2023-03-04T09:19:49;2.50;99.90
17442;DHT22;8838;50.144;8.176;2023-03-04T09:22:17;2.50;99.90
17442;DHT22;8838;50.144;8.176;2023-03-04T09:24:44;2.50;99.90
17442;DHT22;8838;50.144;8.176;2023-03-04T09:27:11;2.50;99.90
17442;DHT22;8838;50.144;8.176;2023-03-04T09:29:41;2.60;99.90
17442;DHT22;8838;50.144;8.176;2023-03-04T09:32:09;2.60;99.90
17442;DHT22;8838;50.144;8.176;2023-03-04T09:34:35;2.70;99.90
17442;DHT22;8838;50.144;8.176;2023-03-04T09:37:03;2.70;99.90
17442;DHT22;8838;50.144;8.176;2023-03-04T09:39:31;2.60;99.90
17442;DHT22;8838;50.144;8.176;2023-03-04T09:41:59;2.70;99.90
17442;DHT22;8838;50.144;8.176;2023-03-04T09:44:29;2.80;99.90
17442;DHT22;8838;50.144;8.176;2023-03-04T09:47:03;2.80;99.90
17442;DHT22;8838;50.144;8.176;2023-03-04T09:49:31;2.70;99.90
17442;DHT22;8838;50.144;8.176;2023-03-04T09:52:02;2.70;99.90
17442;DHT22;8838;50.144;8.176;2023-03-04T09:54:48;2.80;99.90
17442;DHT22;8838;50.144;8.176;2023-03-04T09:57:25;2.80;99.90
17442;DHT22;8838;50.144;8.176;2023-03-04T10:00:04;2.70;99.90
17442;DHT22;8838;50.144;8.176;2023-03-04T10:02:44;2.70;99.90
17442;DHT22;8838;50.144;8.176;2023-03-04T10:05:15;2.80;99.90
17442;DHT22;8838;50.144;8.176;2023-03-04T10:07:47;2.90;99.90
17442;DHT22;8838;50.144;8.176;2023-03-04T10:10:19;2.90;99.90
17442;DHT22;8838;50.144;8.176;2023-03-04T10:12:48;3.00;99.90
17442;DHT22;8838;50.144;8.176;2023-03-04T10:15:22;2.90;99.90
17442;DHT22;8838;50.144;8.176;2023-03-04T10:17:53;3.00;99.90
17442;DHT22;8838;50.144;8.176;2023-03-04T10:20:24;3.00;99.90
17442;DHT22;8838;50.144;8.176;2023-03-04T10:22:57;3.10;99.90
17442;DHT22;8838;50.144;8.176;2023-03-04T10:25:27;3.10;99.90
17442;DHT22;8838;50.144;8.176;2023-03-04T10:27:56;3.10;99.90
17442;DHT22;8838;50.144;8.176;2023-03-04T10:30:35;3.20;99.90
17442;DHT22;8838;50.144;8.176;2023-03-04T10:33:10;3.20;99.90
17442;DHT22;8838;50.144;8.176;2023-03-04T10:35:37;3.20;99.90
17442;DHT22;8838;50.144;8.176;2023-03-04T10:38:05;3.10;99.90
17442;DHT22;8838;50.144;8.176;2023-03-04T10:40:39;3.20;99.90
17442;DHT22;8838;50.144;8.176;2023-03-04T10:43:13;3.10;99.90
17442;DHT22;8838;50.144;8.176;2023-03-04T10:45:40;3.20;99.90
17442;DHT22;8838;50.144;8.176;2023-03-04T10:48:17;3.30;99.90
17442;DHT22;8838;50.144;8.176;2023-03-04T10:50:45;3.30;99.90
17442;DHT22;8838;50.144;8.176;2023-03-04T10:53:25;3.30;99.90
17442;DHT22;8838;50.144;8.176;2023-03-04T10:55:55;3.30;99.90
17442;DHT22;8838;50.144;8.176;2023-03-04T10:58:22;3.30;99.90
17442;DHT22;8838;50.144;8.176;2023-03-04T11:01:03;3.30;99.90
17442;DHT22;8838;50.144;8.176;2023-03-04T11:03:33;3.30;99.90
17442;DHT22;8838;50.144;8.176;2023-03-04T11:06:13;3.30;99.90
17442;DHT22;8838;50.144;8.176;2023-03-04T11:08:41;3.30;99.90
17442;DHT22;8838;50.144;8.176;2023-03-04T11:11:23;3.30;99.90
17442;DHT22;8838;50.144;8.176;2023-03-04T11:13:51;3.30;99.90
17442;DHT22;8838;50.144;8.176;2023-03-04T11:16:26;3.20;99.90
17442;DHT22;8838;50.144;8.176;2023-03-04T11:18:58;3.20;99.90
17442;DHT22;8838;50.144;8.176;2023-03-04T11:21:29;3.30;99.90
17442;DHT22;8838;50.144;8.176;2023-03-04T11:23:59;3.30;99.90
17442;DHT22;8838;50.144;8.176;2023-03-04T11:26:31;3.40;99.90
17442;DHT22;8838;50.144;8.176;2023-03-04T11:29:06;3.50;99.90
17442;DHT22;8838;50.144;8.176;2023-03-04T11:31:37;3.50;99.90
17442;DHT22;8838;50.144;8.176;2023-03-04T11:34:12;3.40;99.90
17442;DHT22;8838;50.144;8.176;2023-03-04T11:36:50;3.50;99.90
17442;DHT22;8838;50.144;8.176;2023-03-04T11:39:26;3.50;99.90
17442;DHT22;8838;50.144;8.176;2023-03-04T11:42:00;3.60;99.90
17442;DHT22;8838;50.144;8.176;2023-03-04T11:44:29;3.60;99.90
17442;DHT22;8838;50.144;8.176;2023-03-04T11:47:17;3.60;99.90
17442;DHT22;8838;50.144;8.176;2023-03-04T11:50:04;3.70;99.90
17442;DHT22;8838;50.144;8.176;2023-03-04T11:52:49;3.70;99.90
17442;DHT22;8838;50.144;8.176;2023-03-04T11:55:32;3.80;99.90
17442;DHT22;8838;50.144;8.176;2023-03-04T11:58:14;3.80;99.90
17442;DHT22;8838;50.144;8.176;2023-03-04T12:00:46;3.70;99.90
17442;DHT22;8838;50.144;8.176;2023-03-04T12:06:09;3.80;99.90
17442;DHT22;8838;50.144;8.176;2023-03-04T12:08:53;3.80;99.90
17442;DHT22;8838;50.144;8.176;2023-03-04T12:11:27;3.90;99.90
17442;DHT22;8838;50.144;8.176;2023-03-04T12:14:18;3.80;99.90
17442;DHT22;8838;50.144;8.176;2023-03-04T12:20:20;4.10;99.90
17442;DHT22;8838;50.144;8.176;2023-03-04T12:22:53;4.30;99.90
17442;DHT22;8838;50.144;8.176;2023-03-04T12:25:42;4.50;99.90
17442;DHT22;8838;50.144;8.176;2023-03-04T12:28:39;4.80;99.90
17442;DHT22;8838;50.144;8.176;2023-03-04T12:31:28;4.90;99.90
17442;DHT22;8838;50.144;8.176;2023-03-04T12:34:30;5.00;99.90
17442;DHT22;8838;50.144;8.176;2023-03-04T12:37:21;5.00;99.90
17442;DHT22;8838;50.144;8.176;2023-03-04T12:40:10;5.00;99.90
17442;DHT22;8838;50.144;8.176;2023-03-04T12:42:49;4.90;99.90
17442;DHT22;8838;50.144;8.176;2023-03-04T12:45:23;4.90;99.90
17442;DHT22;8838;50.144;8.176;2023-03-04T12:48:01;4.80;99.90
17442;DHT22;8838;50.144;8.176;2023-03-04T12:50:38;4.80;99.90
17442;DHT22;8838;50.144;8.176;2023-03-04T12:53:14;4.70;99.90
17442;DHT22;8838;50.144;8.176;2023-03-04T12:55:44;4.70;99.90
17442;DHT22;8838;50.144;8.176;2023-03-04T12:58:14;4.60;99.90
17442;DHT22;8838;50.144;8.176;2023-03-04T13:00:51;4.70;99.90
17442;DHT22;8838;50.144;8.176;2023-03-04T13:03:27;4.70;99.90
17442;DHT22;8838;50.144;8.176;2023-03-04T13:06:05;4.80;99.90
17442;DHT22;8838;50.144;8.176;2023-03-04T13:08:38;4.90;99.90
17442;DHT22;8838;50.144;8.176;2023-03-04T13:11:41;5.00;99.90
17442;DHT22;8838;50.144;8.176;2023-03-04T13:14:23;5.10;99.90
17442;DHT22;8838;50.144;8.176;2023-03-04T13:16:55;5.10;99.90
17442;DHT22;8838;50.144;8.176;2023-03-04T13:19:54;5.10;99.90
17442;DHT22;8838;50.144;8.176;2023-03-04T13:22:26;5.10;99.90
17442;DHT22;8838;50.144;8.176;2023-03-04T13:24:55;5.10;99.90
17442;DHT22;8838;50.144;8.176;2023-03-04T13:27:44;5.10;99.90
17442;DHT22;8838;50.144;8.176;2023-03-04T13:30:38;5.00;99.90
17442;DHT22;8838;50.144;8.176;2023-03-04T13:33:43;4.90;99.90
17442;DHT22;8838;50.144;8.176;2023-03-04T13:39:22;4.80;99.90
17442;DHT22;8838;50.144;8.176;2023-03-04T13:41:50;4.90;99.90
17442;DHT22;8838;50.144;8.176;2023-03-04T13:47:40;4.80;99.90
17442;DHT22;8838;50.144;8.176;2023-03-04T13:50:24;4.80;99.90
17442;DHT22;8838;50.144;8.176;2023-03-04T13:52:56;4.80;99.90
17442;DHT22;8838;50.144;8.176;2023-03-04T13:55:37;4.90;99.90
17442;DHT22;8838;50.144;8.176;2023-03-04T13:58:16;4.90;99.90
17442;DHT22;8838;50.144;8.176;2023-03-04T14:00:48;4.90;99.90
17442;DHT22;8838;50.144;8.176;2023-03-04T14:03:21;4.90;99.90
17442;DHT22;8838;50.144;8.176;2023-03-04T14:06:10;5.00;99.90
17442;DHT22;8838;50.144;8.176;2023-03-04T14:08:37;5.10;99.90
17442;DHT22;8838;50.144;8.176;2023-03-04T14:11:09;5.00;99.90
17442;DHT22;8838;50.144;8.176;2023-03-04T14:13:36;4.90;99.90
17442;DHT22;8838;50.144;8.176;2023-03-04T14:16:06;4.80;99.90
17442;DHT22;8838;50.144;8.176;2023-03-04T14:18:33;4.70;99.90
17442;DHT22;8838;50.144;8.176;2023-03-04T14:21:00;4.70;99.90
17442;DHT22;8838;50.144;8.176;2023-03-04T14:23:29;4.70;99.90
17442;DHT22;8838;50.144;8.176;2023-03-04T14:26:12;4.70;99.90
17442;DHT22;8838;50.144;8.176;2023-03-04T14:28:44;4.70;99.90
17442;DHT22;8838;50.144;8.176;2023-03-04T14:31:15;4.70;99.90
17442;DHT22;8838;50.144;8.176;2023-03-04T14:33:44;4.60;99.90
17442;DHT22;8838;50.144;8.176;2023-03-04T14:36:20;4.60;99.90
17442;DHT22;8838;50.144;8.176;2023-03-04T14:38:52;4.60;99.90
17442;DHT22;8838;50.144;8.176;2023-03-04T14:41:27;4.50;99.90
17442;DHT22;8838;50.144;8.176;2023-03-04T14:44:04;4.50;99.90
17442;DHT22;8838;50.144;8.176;2023-03-04T14:46:37;4.40;99.90
17442;DHT22;8838;50.144;8.176;2023-03-04T14:49:05;4.40;99.90
17442;DHT22;8838;50.144;8.176;2023-03-04T14:51:39;4.40;99.90
17442;DHT22;8838;50.144;8.176;2023-03-04T14:54:31;4.40;99.90
17442;DHT22;8838;50.144;8.176;2023-03-04T14:57:10;4.40;99.90
17442;DHT22;8838;50.144;8.176;2023-03-04T14:59:45;4.40;99.90
17442;DHT22;8838;50.144;8.176;2023-03-04T15:02:34;4.40;99.90
17442;DHT22;8838;50.144;8.176;2023-03-04T15:05:08;4.40;99.90
17442;DHT22;8838;50.144;8.176;2023-03-04T15:07:40;4.40;99.90
17442;DHT22;8838;50.144;8.176;2023-03-04T15:10:11;4.40;99.90
17442;DHT22;8838;50.144;8.176;2023-03-04T15:12:39;4.40;99.90
17442;DHT22;8838;50.144;8.176;2023-03-04T15:15:30;4.40;99.90
17442;DHT22;8838;50.144;8.176;2023-03-04T15:17:57;4.50;99.90
17442;DHT22;8838;50.144;8.176;2023-03-04T15:20:26;4.50;99.90
17442;DHT22;8838;50.144;8.176;2023-03-04T15:23:03;4.40;99.90
17442;DHT22;8838;50.144;8.176;2023-03-04T15:25:33;4.40;99.90
17442;DHT22;8838;50.144;8.176;2023-03-04T15:28:01;4.50;99.90
17442;DHT22;8838;50.144;8.176;2023-03-04T15:30:30;4.50;99.90
17442;DHT22;8838;50.144;8.176;2023-03-04T15:32:58;4.40;99.90
17442;DHT22;8838;50.144;8.176;2023-03-04T15:35:27;4.50;99.90
17442;DHT22;8838;50.144;8.176;2023-03-04T15:37:55;4.50;99.90
17442;DHT22;8838;50.144;8.176;2023-03-04T15:40:28;4.40;99.90
17442;DHT22;8838;50.144;8.176;2023-03-04T15:42:56;4.40;99.90
17442;DHT22;8838;50.144;8.176;2023-03-04T15:45:26;4.40;99.90
17442;DHT22;8838;50.144;8.176;2023-03-04T15:47:53;4.40;99.90
17442;DHT22;8838;50.144;8.176;2023-03-04T15:50:20;4.30;99.90
17442;DHT22;8838;50.144;8.176;2023-03-04T15:52:47;4.40;99.90
17442;DHT22;8838;50.144;8.176;2023-03-04T15:55:16;4.40;99.90
17442;DHT22;8838;50.144;8.176;2023-03-04T15:57:45;4.40;99.90
17442;DHT22;8838;50.144;8.176;2023-03-04T16:00:13;4.40;99.90
17442;DHT22;8838;50.144;8.176;2023-03-04T16:02:41;4.40;99.90
17442;DHT22;8838;50.144;8.176;2023-03-04T16:05:09;4.40;99.90
17442;DHT22;8838;50.144;8.176;2023-03-04T16:07:37;4.40;99.90
17442;DHT22;8838;50.144;8.176;2023-03-04T16:10:11;4.30;99.90
17442;DHT22;8838;50.144;8.176;2023-03-04T16:12:39;4.30;99.90
17442;DHT22;8838;50.144;8.176;2023-03-04T16:15:13;4.30;99.90
17442;DHT22;8838;50.144;8.176;2023-03-04T16:17:42;4.30;99.90
17442;DHT22;8838;50.144;8.176;2023-03-04T16:20:14;4.30;99.90
17442;DHT22;8838;50.144;8.176;2023-03-04T16:22:42;4.30;99.90
17442;DHT22;8838;50.144;8.176;2023-03-04T16:25:12;4.40;99.90
17442;DHT22;8838;50.144;8.176;2023-03-04T16:27:47;4.30;99.90
17442;DHT22;8838;50.144;8.176;2023-03-04T16:30:17;4.30;99.90
17442;DHT22;8838;50.144;8.176;2023-03-04T16:32:46;4.30;99.90
17442;DHT22;8838;50.144;8.176;2023-03-04T16:35:14;4.30;99.90